createdAt,value
2023-04-25T00:00:38.567Z,94140.00
2023-04-25T00:01:38.577Z,94138.00
2023-04-25T00:02:38.671Z,94138.00
2023-04-25T00:03:38.703Z,94138.00
2023-04-25T00:04:38.859Z,94138.00
2023-04-25T00:05:38.747Z,94136.00
2023-04-25T00:06:38.570Z,94136.00
2023-04-25T00:07:38.545Z,94136.00
2023-04-25T00:08:38.554Z,94136.00
2023-04-25T00:09:38.580Z,94136.00
2023-04-25T00:10:38.571Z,94136.00
2023-04-25T00:11:38.622Z,94136.00
2023-04-25T00:12:38.627Z,94136.00
2023-04-25T00:13:38.651Z,94136.00
2023-04-25T00:14:38.619Z,94136.00
2023-04-25T00:15:38.706Z,94138.00
2023-04-25T00:16:38.857Z,94138.00
2023-04-25T00:17:38.756Z,94138.00
2023-04-25T00:18:38.697Z,94138.00
2023-04-25T00:19:38.708Z,94138.00
2023-04-25T00:20:38.736Z,94136.00
2023-04-25T00:21:38.718Z,94138.00
2023-04-25T00:22:38.746Z,94138.00
2023-04-25T00:23:38.758Z,94138.00
2023-04-25T00:24:38.804Z,94138.00
2023-04-25T00:25:38.833Z,94140.00
2023-04-25T00:26:38.883Z,94142.00
2023-04-25T00:27:38.917Z,94140.00
2023-04-25T00:28:38.979Z,94140.00
2023-04-25T00:29:38.994Z,94140.00
2023-04-25T00:30:39.041Z,94140.00
2023-04-25T00:31:39.219Z,94140.00
2023-04-25T00:32:39.131Z,94140.00
2023-04-25T00:33:39.189Z,94140.00
2023-04-25T00:34:39.243Z,94140.00
2023-04-25T00:35:39.293Z,94142.00
2023-04-25T00:36:39.313Z,94140.00
2023-04-25T00:37:39.356Z,94140.00
2023-04-25T00:38:39.396Z,94140.00
2023-04-25T00:39:39.449Z,94140.00
2023-04-25T00:40:39.430Z,94138.00
2023-04-25T00:41:39.479Z,94136.00
2023-04-25T00:42:39.507Z,94136.00
2023-04-25T00:43:39.575Z,94136.00
2023-04-25T00:44:39.587Z,94126.00
2023-04-25T00:45:39.677Z,94128.00
2023-04-25T00:46:39.692Z,94128.00
2023-04-25T00:47:39.754Z,94128.00
2023-04-25T00:48:39.759Z,94128.00
2023-04-25T00:49:40.657Z,94136.00
2023-04-25T00:50:39.857Z,94128.00
2023-04-25T00:51:39.867Z,94128.00
2023-04-25T00:52:39.948Z,94136.00
2023-04-25T00:53:39.996Z,94126.00
2023-04-25T00:54:40.013Z,94126.00
2023-04-25T00:55:40.040Z,94126.00
2023-04-25T00:56:40.136Z,94124.00
2023-04-25T00:57:40.152Z,94122.00
2023-04-25T00:58:40.234Z,94118.00
2023-04-25T00:59:40.245Z,94118.00
2023-04-25T01:00:40.311Z,94114.00
2023-04-25T01:01:40.367Z,94114.00
2023-04-25T01:02:40.515Z,94114.00
2023-04-25T01:03:40.772Z,94114.00
2023-04-25T01:04:40.490Z,94111.00
2023-04-25T01:05:40.536Z,94111.00
2023-04-25T01:06:40.546Z,94107.00
2023-04-25T01:07:40.580Z,94103.00
2023-04-25T01:08:40.606Z,94101.00
2023-04-25T01:09:40.678Z,94097.00
2023-04-25T01:10:40.720Z,94095.00
2023-04-25T01:11:40.743Z,94097.00
2023-04-25T01:12:40.806Z,94095.00
2023-04-25T01:13:40.834Z,94095.00
2023-04-25T01:14:40.949Z,94097.00
2023-04-25T01:15:40.936Z,94099.00
2023-04-25T01:16:40.978Z,94101.00
2023-04-25T01:17:40.990Z,94101.00
2023-04-25T01:18:41.033Z,94103.00
2023-04-25T01:19:41.112Z,94103.00
2023-04-25T01:20:41.121Z,94107.00
2023-04-25T01:21:41.195Z,94107.00
2023-04-25T01:22:41.170Z,94113.00
2023-04-25T01:23:41.235Z,94109.00
2023-04-25T01:24:41.251Z,94111.00
2023-04-25T01:25:41.276Z,94111.00
2023-04-25T01:26:41.351Z,94114.00
2023-04-25T01:27:41.393Z,94113.00
2023-04-25T01:28:41.428Z,94111.00
2023-04-25T01:29:41.467Z,94109.00
2023-04-25T01:30:41.467Z,94109.00
2023-04-25T01:31:41.567Z,94109.00
2023-04-25T01:32:41.583Z,94105.00
2023-04-25T01:33:41.561Z,94103.00
2023-04-25T01:34:41.683Z,94105.00
2023-04-25T01:35:41.655Z,94105.00
2023-04-25T01:36:41.714Z,94101.00
2023-04-25T01:37:41.730Z,94103.00
2023-04-25T01:38:41.740Z,94103.00
2023-04-25T01:39:41.789Z,94103.00
2023-04-25T01:40:41.778Z,94105.00
2023-04-25T01:41:41.811Z,94103.00
2023-04-25T01:42:41.882Z,94101.00
2023-04-25T01:43:41.836Z,94103.00
2023-04-25T01:44:41.894Z,94103.00
2023-04-25T01:45:41.935Z,94103.00
2023-04-25T01:46:41.957Z,94105.00
2023-04-25T01:47:41.947Z,94103.00
2023-04-25T01:48:41.981Z,94103.00
2023-04-25T01:49:42.010Z,94107.00
2023-04-25T01:50:42.042Z,94105.00
2023-04-25T01:51:42.094Z,94105.00
2023-04-25T01:52:42.181Z,94107.00
2023-04-25T01:53:42.189Z,94109.00
2023-04-25T01:54:42.222Z,94111.00
2023-04-25T01:55:42.234Z,94111.00
2023-04-25T01:56:42.297Z,94111.00
2023-04-25T01:57:42.313Z,94111.00
2023-04-25T01:58:42.368Z,94109.00
2023-04-25T01:59:42.430Z,94109.00
2023-04-25T02:00:42.470Z,94109.00
2023-04-25T02:01:42.503Z,94107.00
2023-04-25T02:02:42.657Z,94111.00
2023-04-25T02:03:42.697Z,94109.00
2023-04-25T02:04:42.783Z,94111.00
2023-04-25T02:05:42.674Z,94109.00
2023-04-25T02:06:42.751Z,94107.00
2023-04-25T02:07:42.798Z,94105.00
2023-04-25T02:08:42.822Z,94107.00
2023-04-25T02:09:42.869Z,94107.00
2023-04-25T02:10:42.928Z,94109.00
2023-04-25T02:11:42.988Z,94107.00
2023-04-25T02:12:43.053Z,94109.00
2023-04-25T02:13:43.042Z,94109.00
2023-04-25T02:14:43.080Z,94107.00
2023-04-25T02:15:43.226Z,94107.00
2023-04-25T02:16:43.255Z,94105.00
2023-04-25T02:17:43.263Z,94105.00
2023-04-25T02:18:43.289Z,94105.00
2023-04-25T02:19:43.311Z,94107.00
2023-04-25T02:20:43.327Z,94107.00
2023-04-25T02:21:43.385Z,94107.00
2023-04-25T02:22:43.394Z,94107.00
2023-04-25T02:23:43.424Z,94109.00
2023-04-25T02:24:43.478Z,94107.00
2023-04-25T02:25:43.507Z,94109.00
2023-04-25T02:26:43.528Z,94107.00
2023-04-25T02:27:43.610Z,94109.00
2023-04-25T02:28:43.609Z,94109.00
2023-04-25T02:29:43.637Z,94107.00
2023-04-25T02:30:43.684Z,94109.00
2023-04-25T02:31:43.832Z,94109.00
2023-04-25T02:32:43.792Z,94111.00
2023-04-25T02:33:43.800Z,94107.00
2023-04-25T02:34:43.828Z,94111.00
2023-04-25T02:35:43.846Z,94109.00
2023-04-25T02:36:43.907Z,94111.00
2023-04-25T02:37:43.936Z,94111.00
2023-04-25T02:38:43.940Z,94111.00
2023-04-25T02:39:44.209Z,94111.00
2023-04-25T02:40:44.039Z,94113.00
2023-04-25T02:41:44.082Z,94113.00
2023-04-25T02:42:44.163Z,94114.00
2023-04-25T02:43:44.110Z,94113.00
2023-04-25T02:44:44.173Z,94113.00
2023-04-25T02:45:44.203Z,94113.00
2023-04-25T02:46:44.193Z,94114.00
2023-04-25T02:47:44.244Z,94114.00
2023-04-25T02:48:44.211Z,94114.00
2023-04-25T02:49:44.269Z,94113.00
2023-04-25T02:50:44.279Z,94114.00
2023-04-25T02:51:44.299Z,94113.00
2023-04-25T02:52:44.356Z,94114.00
2023-04-25T02:53:44.377Z,94113.00
2023-04-25T02:54:44.392Z,94113.00
2023-04-25T02:55:44.445Z,94114.00
2023-04-25T02:56:44.489Z,94113.00
2023-04-25T02:57:44.542Z,94113.00
2023-04-25T02:58:44.526Z,94113.00
2023-04-25T02:59:44.571Z,94113.00
2023-04-25T03:00:44.639Z,94113.00
2023-04-25T03:01:44.661Z,94109.00
2023-04-25T03:02:44.720Z,94111.00
2023-04-25T03:03:44.784Z,94111.00
2023-04-25T03:04:44.757Z,94109.00
2023-04-25T03:05:44.706Z,94109.00
2023-04-25T03:06:45.210Z,94111.00
2023-04-25T03:07:44.799Z,94111.00
2023-04-25T03:08:44.846Z,94109.00
2023-04-25T03:09:44.833Z,94109.00
2023-04-25T03:10:44.870Z,94107.00
2023-04-25T03:11:44.931Z,94103.00
2023-04-25T03:12:44.993Z,94103.00
2023-04-25T03:13:44.961Z,94105.00
2023-04-25T03:14:44.979Z,94101.00
2023-04-25T03:15:45.001Z,94101.00
2023-04-25T03:16:45.035Z,94103.00
2023-04-25T03:17:45.074Z,94099.00
2023-04-25T03:18:45.047Z,94097.00
2023-04-25T03:19:45.066Z,94095.00
2023-04-25T03:20:45.150Z,94097.00
2023-04-25T03:21:45.146Z,94097.00
2023-04-25T03:22:45.221Z,94099.00
2023-04-25T03:23:45.231Z,94099.00
2023-04-25T03:24:45.288Z,94097.00
2023-04-25T03:25:45.290Z,94095.00
2023-04-25T03:26:45.337Z,94095.00
2023-04-25T03:27:45.313Z,94091.00
2023-04-25T03:28:45.320Z,94091.00
2023-04-25T03:29:45.712Z,94095.00
2023-04-25T03:30:45.331Z,94093.00
2023-04-25T03:31:45.398Z,94093.00
2023-04-25T03:32:45.390Z,94097.00
2023-04-25T03:33:45.362Z,94097.00
2023-04-25T03:34:45.390Z,94095.00
2023-04-25T03:35:45.425Z,94093.00
2023-04-25T03:36:45.433Z,94091.00
2023-04-25T03:37:45.393Z,94091.00
2023-04-25T03:38:45.412Z,94089.00
2023-04-25T03:39:45.430Z,94089.00
2023-04-25T03:40:45.412Z,94087.00
2023-04-25T03:41:45.423Z,94087.00
2023-04-25T03:42:45.456Z,94087.00
2023-04-25T03:43:45.466Z,94085.00
2023-04-25T03:44:45.479Z,94087.00
2023-04-25T03:45:45.516Z,94089.00
2023-04-25T03:46:45.463Z,94085.00
2023-04-25T03:47:45.521Z,94087.00
2023-04-25T03:48:45.511Z,94087.00
2023-04-25T03:49:45.550Z,94087.00
2023-04-25T03:50:45.531Z,94087.00
2023-04-25T03:51:45.552Z,94089.00
2023-04-25T03:52:45.590Z,94087.00
2023-04-25T03:53:45.592Z,94087.00
2023-04-25T03:54:45.551Z,94087.00
2023-04-25T03:55:45.580Z,94087.00
2023-04-25T03:56:45.593Z,94085.00
2023-04-25T03:57:45.593Z,94083.00
2023-04-25T03:58:45.617Z,94083.00
2023-04-25T03:59:45.656Z,94085.00
2023-04-25T04:00:45.672Z,94083.00
2023-04-25T04:01:45.639Z,94081.00
2023-04-25T04:02:45.908Z,94081.00
2023-04-25T04:03:45.891Z,94079.00
2023-04-25T04:04:45.882Z,94077.00
2023-04-25T04:05:45.743Z,94075.00
2023-04-25T04:06:45.708Z,94079.00
2023-04-25T04:07:45.682Z,94079.00
2023-04-25T04:08:45.724Z,94077.00
2023-04-25T04:09:45.714Z,94081.00
2023-04-25T04:10:45.750Z,94081.00
2023-04-25T04:11:45.777Z,94083.00
2023-04-25T04:12:46.230Z,94083.00
2023-04-25T04:13:45.802Z,94079.00
2023-04-25T04:14:45.814Z,94085.00
2023-04-25T04:15:45.960Z,94087.00
2023-04-25T04:16:45.842Z,94087.00
2023-04-25T04:17:45.885Z,94085.00
2023-04-25T04:18:45.845Z,94085.00
2023-04-25T04:19:45.857Z,94083.00
2023-04-25T04:20:45.871Z,94085.00
2023-04-25T04:21:45.866Z,94085.00
2023-04-25T04:22:45.944Z,94087.00
2023-04-25T04:23:45.936Z,94083.00
2023-04-25T04:24:45.934Z,94083.00
2023-04-25T04:25:45.943Z,94085.00
2023-04-25T04:26:45.935Z,94085.00
2023-04-25T04:27:45.964Z,94081.00
2023-04-25T04:28:45.974Z,94079.00
2023-04-25T04:29:46.016Z,94081.00
2023-04-25T04:30:45.984Z,94077.00
2023-04-25T04:31:46.007Z,94079.00
2023-04-25T04:32:46.225Z,94079.00
2023-04-25T04:33:46.038Z,94079.00
2023-04-25T04:34:46.061Z,94079.00
2023-04-25T04:35:46.093Z,94081.00
2023-04-25T04:36:46.136Z,94083.00
2023-04-25T04:37:46.110Z,94083.00
2023-04-25T04:38:46.162Z,94083.00
2023-04-25T04:39:46.168Z,94079.00
2023-04-25T04:40:46.202Z,94081.00
2023-04-25T04:41:46.247Z,94079.00
2023-04-25T04:42:46.267Z,94083.00
2023-04-25T04:43:46.279Z,94081.00
2023-04-25T04:44:46.310Z,94081.00
2023-04-25T04:45:46.343Z,94079.00
2023-04-25T04:46:46.348Z,94079.00
2023-04-25T04:47:46.405Z,94081.00
2023-04-25T04:48:46.361Z,94079.00
2023-04-25T04:49:46.390Z,94079.00
2023-04-25T04:50:46.379Z,94081.00
2023-04-25T04:51:46.389Z,94081.00
2023-04-25T04:52:46.420Z,94083.00
2023-04-25T04:53:46.463Z,94083.00
2023-04-25T04:54:46.469Z,94087.00
2023-04-25T04:55:46.530Z,94085.00
2023-04-25T04:56:46.536Z,94087.00
2023-04-25T04:57:46.748Z,94083.00
2023-04-25T04:58:46.609Z,94083.00
2023-04-25T04:59:46.651Z,94083.00
2023-04-25T05:00:46.722Z,94081.00
2023-04-25T05:01:46.753Z,94077.00
2023-04-25T05:02:46.849Z,94079.00
2023-04-25T05:03:46.938Z,94079.00
2023-04-25T05:04:46.846Z,94077.00
2023-04-25T05:05:46.790Z,94077.00
2023-04-25T05:06:48.765Z,94077.00
2023-04-25T05:07:46.820Z,94075.00
2023-04-25T05:08:46.837Z,94075.00
2023-04-25T05:09:46.869Z,94075.00
2023-04-25T05:10:46.873Z,94077.00
2023-04-25T05:11:46.943Z,94075.00
2023-04-25T05:12:46.974Z,94077.00
2023-04-25T05:13:46.985Z,94077.00
2023-04-25T05:14:47.063Z,94079.00
2023-04-25T05:15:47.119Z,94081.00
2023-04-25T05:16:47.225Z,94077.00
2023-04-25T05:17:47.398Z,94079.00
2023-04-25T05:18:47.253Z,94079.00
2023-04-25T05:19:47.232Z,94075.00
2023-04-25T05:20:47.281Z,94075.00
2023-04-25T05:21:47.313Z,94075.00
2023-04-25T05:22:47.343Z,94073.00
2023-04-25T05:23:47.394Z,94073.00
2023-04-25T05:24:47.450Z,94071.00
2023-04-25T05:25:47.475Z,94071.00
2023-04-25T05:26:47.622Z,94071.00
2023-04-25T05:27:47.547Z,94071.00
2023-04-25T05:28:47.619Z,94067.00
2023-04-25T05:29:47.602Z,94065.00
2023-04-25T05:30:47.677Z,94063.00
2023-04-25T05:31:47.723Z,94061.00
2023-04-25T05:32:47.872Z,94063.00
2023-04-25T05:33:47.751Z,94063.00
2023-04-25T05:34:47.889Z,94063.00
2023-04-25T05:35:47.859Z,94067.00
2023-04-25T05:36:47.904Z,94063.00
2023-04-25T05:37:49.761Z,94063.00
2023-04-25T05:38:47.998Z,94061.00
2023-04-25T05:39:48.090Z,94056.00
2023-04-25T05:40:48.101Z,94058.00
2023-04-25T05:41:48.201Z,94058.00
2023-04-25T05:42:48.781Z,94056.00
2023-04-25T05:43:48.505Z,94058.00
2023-04-25T05:44:48.445Z,94058.00
2023-04-25T05:45:48.444Z,94061.00
2023-04-25T05:46:49.262Z,94065.00
2023-04-25T05:47:49.264Z,94059.00
2023-04-25T05:48:48.585Z,94059.00
2023-04-25T05:49:48.627Z,94056.00
2023-04-25T05:50:48.755Z,94052.00
2023-04-25T05:51:48.742Z,94050.00
2023-04-25T05:52:48.781Z,94046.00
2023-04-25T05:53:48.999Z,94036.00
2023-04-25T05:54:49.758Z,94028.00
2023-04-25T05:55:49.286Z,94028.00
2023-04-25T05:56:48.907Z,94026.00
2023-04-25T05:57:51.336Z,94022.00
2023-04-25T05:58:49.106Z,94022.00
2023-04-25T05:59:49.151Z,94026.00
2023-04-25T06:00:49.134Z,94026.00
2023-04-25T06:01:49.113Z,94028.00
2023-04-25T06:02:49.390Z,94032.00
2023-04-25T06:03:49.374Z,94034.00
2023-04-25T06:04:49.271Z,94034.00
2023-04-25T06:05:49.257Z,94034.00
2023-04-25T06:06:49.208Z,94034.00
2023-04-25T06:07:49.172Z,94036.00
2023-04-25T06:08:49.161Z,94036.00
2023-04-25T06:09:49.211Z,94038.00
2023-04-25T06:10:49.246Z,94036.00
2023-04-25T06:11:49.202Z,94036.00
2023-04-25T06:12:49.231Z,94038.00
2023-04-25T06:13:49.443Z,94034.00
2023-04-25T06:14:49.385Z,94034.00
2023-04-25T06:15:49.387Z,94030.00
2023-04-25T06:16:49.428Z,94032.00
2023-04-25T06:17:49.500Z,94032.00
2023-04-25T06:18:49.532Z,94036.00
2023-04-25T06:19:49.620Z,94038.00
2023-04-25T06:20:49.668Z,94038.00
2023-04-25T06:21:49.710Z,94036.00
2023-04-25T06:22:49.778Z,94034.00
2023-04-25T06:23:49.955Z,94034.00
2023-04-25T06:24:49.879Z,94030.00
2023-04-25T06:25:49.959Z,94030.00
2023-04-25T06:26:49.983Z,94030.00
2023-04-25T06:27:50.019Z,94028.00
2023-04-25T06:28:50.074Z,94032.00
2023-04-25T06:29:50.155Z,94028.00
2023-04-25T06:30:50.154Z,94030.00
2023-04-25T06:31:50.280Z,94032.00
2023-04-25T06:32:50.343Z,94032.00
2023-04-25T06:33:50.515Z,94034.00
2023-04-25T06:34:50.329Z,94030.00
2023-04-25T06:35:50.360Z,94032.00
2023-04-25T06:36:50.401Z,94034.00
2023-04-25T06:37:50.783Z,94032.00
2023-04-25T06:38:50.715Z,94038.00
2023-04-25T06:39:50.522Z,94036.00
2023-04-25T06:40:50.558Z,94034.00
2023-04-25T06:41:50.589Z,94032.00
2023-04-25T06:42:51.307Z,94034.00
2023-04-25T06:43:50.633Z,94030.00
2023-04-25T06:44:50.655Z,94032.00
2023-04-25T06:45:50.673Z,94028.00
2023-04-25T06:46:50.827Z,94028.00
2023-04-25T06:47:50.798Z,94022.00
2023-04-25T06:48:50.946Z,94020.00
2023-04-25T06:49:50.741Z,94018.00
2023-04-25T06:50:50.771Z,94018.00
2023-04-25T06:51:50.818Z,94016.00
2023-04-25T06:52:50.859Z,94016.00
2023-04-25T06:53:50.807Z,94014.00
2023-04-25T06:54:50.886Z,94011.00
2023-04-25T06:55:51.302Z,94011.00
2023-04-25T06:56:51.798Z,94012.00
2023-04-25T06:57:52.782Z,94009.00
2023-04-25T06:58:51.085Z,94011.00
2023-04-25T06:59:50.940Z,94007.00
2023-04-25T07:00:51.423Z,94005.00
2023-04-25T07:01:50.961Z,94007.00
2023-04-25T07:02:51.440Z,94007.00
2023-04-25T07:03:51.095Z,94009.00
2023-04-25T07:04:51.097Z,94003.00
2023-04-25T07:05:51.808Z,94005.00
2023-04-25T07:06:50.983Z,94005.00
2023-04-25T07:07:51.047Z,94003.00
2023-04-25T07:08:51.145Z,94005.00
2023-04-25T07:09:51.001Z,94003.00
2023-04-25T07:10:51.026Z,94001.00
2023-04-25T07:11:50.985Z,94003.00
2023-04-25T07:12:51.019Z,94005.00
2023-04-25T07:13:50.981Z,94005.00
2023-04-25T07:14:50.998Z,94007.00
2023-04-25T07:15:51.326Z,94009.00
2023-04-25T07:16:51.042Z,94007.00
2023-04-25T07:17:51.343Z,94009.00
2023-04-25T07:18:51.174Z,94005.00
2023-04-25T07:19:50.990Z,94005.00
2023-04-25T07:20:51.009Z,93999.00
2023-04-25T07:21:51.829Z,94001.00
2023-04-25T07:22:51.194Z,94001.00
2023-04-25T07:23:51.217Z,94001.00
2023-04-25T07:24:51.231Z,94001.00
2023-04-25T07:25:51.214Z,93997.00
2023-04-25T07:26:51.213Z,94001.00
2023-04-25T07:27:51.445Z,94001.00
2023-04-25T07:28:51.461Z,93997.00
2023-04-25T07:29:51.284Z,94001.00
2023-04-25T07:30:51.353Z,94001.00
2023-04-25T07:31:51.380Z,94001.00
2023-04-25T07:32:51.860Z,94001.00
2023-04-25T07:33:51.397Z,94003.00
2023-04-25T07:34:51.515Z,94003.00
2023-04-25T07:35:51.925Z,94003.00
2023-04-25T07:36:51.631Z,94003.00
2023-04-25T07:37:51.579Z,94003.00
2023-04-25T07:38:51.718Z,94003.00
2023-04-25T07:39:51.584Z,94003.00
2023-04-25T07:40:51.890Z,93999.00
2023-04-25T07:41:53.016Z,93999.00
2023-04-25T07:42:51.633Z,93999.00
2023-04-25T07:43:51.547Z,93997.00
2023-04-25T07:44:51.530Z,93999.00
2023-04-25T07:45:51.868Z,94001.00
2023-04-25T07:46:52.508Z,93999.00
2023-04-25T07:47:51.599Z,93997.00
2023-04-25T07:48:52.515Z,93995.00
2023-04-25T07:49:51.493Z,93997.00
2023-04-25T07:50:52.340Z,93995.00
2023-04-25T07:51:51.597Z,93997.00
2023-04-25T07:52:51.510Z,93995.00
2023-04-25T07:53:53.328Z,93999.00
2023-04-25T07:54:51.490Z,93997.00
2023-04-25T07:55:51.529Z,93997.00
2023-04-25T07:56:53.288Z,93999.00
2023-04-25T07:57:51.462Z,94001.00
2023-04-25T07:58:52.058Z,94001.00
2023-04-25T07:59:51.537Z,93999.00
2023-04-25T08:00:51.445Z,93999.00
2023-04-25T08:01:51.408Z,93999.00
2023-04-25T08:02:51.512Z,93999.00
2023-04-25T08:03:51.657Z,93999.00
2023-04-25T08:04:52.565Z,93995.00
2023-04-25T08:05:52.466Z,93997.00
2023-04-25T08:06:51.699Z,93997.00
2023-04-25T08:07:51.825Z,93997.00
2023-04-25T08:08:52.653Z,93995.00
2023-04-25T08:09:51.859Z,93997.00
2023-04-25T08:10:52.874Z,93999.00
2023-04-25T08:11:52.010Z,93997.00
2023-04-25T08:12:52.039Z,93997.00
2023-04-25T08:13:52.147Z,93999.00
2023-04-25T08:14:52.118Z,94001.00
2023-04-25T08:15:52.352Z,94001.00
2023-04-25T08:16:52.212Z,93997.00
2023-04-25T08:17:52.248Z,94001.00
2023-04-25T08:18:52.671Z,93999.00
2023-04-25T08:19:52.822Z,93999.00
2023-04-25T08:20:52.235Z,93995.00
2023-04-25T08:21:52.254Z,93997.00
2023-04-25T08:22:52.289Z,93991.00
2023-04-25T08:23:52.255Z,93993.00
2023-04-25T08:24:52.258Z,93991.00
2023-04-25T08:25:52.265Z,93989.00
2023-04-25T08:26:52.246Z,93989.00
2023-04-25T08:27:52.302Z,93989.00
2023-04-25T08:28:52.700Z,93987.00
2023-04-25T08:29:52.297Z,93985.00
2023-04-25T08:30:52.493Z,93987.00
2023-04-25T08:31:52.380Z,93987.00
2023-04-25T08:32:52.411Z,93987.00
2023-04-25T08:33:52.379Z,93987.00
2023-04-25T08:34:52.288Z,93987.00
2023-04-25T08:35:52.315Z,93987.00
2023-04-25T08:36:52.322Z,93985.00
2023-04-25T08:37:52.305Z,93985.00
2023-04-25T08:38:55.217Z,93985.00
2023-04-25T08:39:52.292Z,93983.00
2023-04-25T08:40:52.323Z,93981.00
2023-04-25T08:41:52.278Z,93981.00
2023-04-25T08:42:52.386Z,93983.00
2023-04-25T08:43:52.909Z,93983.00
2023-04-25T08:44:52.324Z,93983.00
2023-04-25T08:45:52.229Z,93983.00
2023-04-25T08:46:52.542Z,93989.00
2023-04-25T08:47:52.395Z,93989.00
2023-04-25T08:48:54.270Z,93985.00
2023-04-25T08:49:52.238Z,93983.00
2023-04-25T08:50:52.278Z,93985.00
2023-04-25T08:51:52.916Z,93985.00
2023-04-25T08:52:52.170Z,93983.00
2023-04-25T08:53:54.159Z,93985.00
2023-04-25T08:54:53.276Z,93981.00
2023-04-25T08:55:52.189Z,93981.00
2023-04-25T08:56:52.142Z,93983.00
2023-04-25T08:57:52.209Z,93987.00
2023-04-25T08:58:52.513Z,93985.00
2023-04-25T08:59:52.159Z,93985.00
2023-04-25T09:00:52.189Z,93983.00
2023-04-25T09:01:52.179Z,93983.00
2023-04-25T09:02:52.265Z,93985.00
2023-04-25T09:03:52.538Z,93979.00
2023-04-25T09:04:52.181Z,93979.00
2023-04-25T09:05:52.256Z,93977.00
2023-04-25T09:06:52.311Z,93977.00
2023-04-25T09:07:52.298Z,93975.00
2023-04-25T09:08:52.336Z,93975.00
2023-04-25T09:09:52.360Z,93973.00
2023-04-25T09:10:52.395Z,93975.00
2023-04-25T09:11:52.365Z,93975.00
2023-04-25T09:12:52.434Z,93977.00
2023-04-25T09:13:52.962Z,93977.00
2023-04-25T09:14:52.460Z,93977.00
2023-04-25T09:15:52.438Z,93979.00
2023-04-25T09:16:52.505Z,93979.00
2023-04-25T09:17:52.538Z,93977.00
2023-04-25T09:18:52.513Z,93981.00
2023-04-25T09:19:52.649Z,93983.00
2023-04-25T09:21:52.497Z,93987.00
2023-04-25T09:22:52.449Z,93989.00
2023-04-25T09:23:53.078Z,93987.00
2023-04-25T09:24:52.501Z,93987.00
2023-04-25T09:25:52.460Z,93987.00
2023-04-25T09:26:52.434Z,93987.00
2023-04-25T09:27:52.422Z,93985.00
2023-04-25T09:28:52.417Z,93983.00
2023-04-25T09:29:53.356Z,93987.00
2023-04-25T09:30:52.407Z,93985.00
2023-04-25T09:32:00.902Z,93987.00
2023-04-25T09:32:52.530Z,93985.00
2023-04-25T09:33:54.669Z,93985.00
2023-04-25T09:34:52.543Z,93981.00
2023-04-25T09:35:52.558Z,93985.00
2023-04-25T09:36:53.400Z,93985.00
2023-04-25T09:37:52.530Z,93987.00
2023-04-25T09:38:52.519Z,93985.00
2023-04-25T09:39:52.582Z,93987.00
2023-04-25T09:40:52.610Z,93987.00
2023-04-25T09:41:52.615Z,93987.00
2023-04-25T09:42:52.589Z,93993.00
2023-04-25T09:43:53.502Z,93993.00
2023-04-25T09:44:52.541Z,93993.00
2023-04-25T09:45:52.483Z,93995.00
2023-04-25T09:46:53.365Z,93995.00
2023-04-25T09:47:52.622Z,93999.00
2023-04-25T09:48:52.881Z,94001.00
2023-04-25T09:49:52.468Z,94003.00
2023-04-25T09:50:52.422Z,94003.00
2023-04-25T09:51:52.876Z,94001.00
2023-04-25T09:52:52.578Z,93999.00
2023-04-25T09:53:53.091Z,94001.00
2023-04-25T09:54:52.514Z,94003.00
2023-04-25T09:55:52.508Z,94005.00
2023-04-25T09:56:52.880Z,94009.00
2023-04-25T09:57:52.398Z,94007.00
2023-04-25T09:58:52.630Z,94005.00
2023-04-25T09:59:52.394Z,94005.00
2023-04-25T10:00:52.884Z,93999.00
2023-04-25T10:01:52.404Z,94001.00
2023-04-25T10:02:52.616Z,93999.00
2023-04-25T10:03:52.434Z,93997.00
2023-04-25T10:04:52.683Z,93997.00
2023-04-25T10:05:52.349Z,93997.00
2023-04-25T10:06:52.390Z,93995.00
2023-04-25T10:07:52.398Z,93993.00
2023-04-25T10:08:52.451Z,93993.00
2023-04-25T10:09:52.458Z,93991.00
2023-04-25T10:10:52.495Z,93987.00
2023-04-25T10:11:53.380Z,93993.00
2023-04-25T10:12:52.602Z,93989.00
2023-04-25T10:13:53.019Z,93991.00
2023-04-25T10:14:52.713Z,93991.00
2023-04-25T10:15:52.802Z,93989.00
2023-04-25T10:16:53.418Z,93983.00
2023-04-25T10:17:52.870Z,93989.00
2023-04-25T10:18:52.882Z,93985.00
2023-04-25T10:19:53.447Z,93983.00
2023-04-25T10:20:54.413Z,93981.00
2023-04-25T10:21:53.386Z,93977.00
2023-04-25T10:22:53.101Z,93979.00
2023-04-25T10:23:53.162Z,93975.00
2023-04-25T10:24:53.904Z,93971.00
2023-04-25T10:25:53.197Z,93969.00
2023-04-25T10:26:54.896Z,93971.00
2023-04-25T10:27:53.920Z,93969.00
2023-04-25T10:28:53.347Z,93969.00
2023-04-25T10:29:53.333Z,93969.00
2023-04-25T10:30:53.423Z,93969.00
2023-04-25T10:32:53.527Z,93962.00
2023-04-25T10:33:53.718Z,93960.00
2023-04-25T10:34:53.551Z,93960.00
2023-04-25T10:35:53.603Z,93960.00
2023-04-25T10:36:53.654Z,93954.00
2023-04-25T10:37:53.683Z,93954.00
2023-04-25T10:38:53.744Z,93956.00
2023-04-25T10:39:53.915Z,93954.00
2023-04-25T10:40:53.908Z,93956.00
2023-04-25T10:41:53.897Z,93954.00
2023-04-25T10:42:53.921Z,93954.00
2023-04-25T10:43:54.217Z,93952.00
2023-04-25T10:44:54.122Z,93952.00
2023-04-25T10:45:54.090Z,93950.00
2023-04-25T10:46:54.148Z,93950.00
2023-04-25T10:47:54.164Z,93950.00
2023-04-25T10:48:54.175Z,93948.00
2023-04-25T10:49:54.408Z,93944.00
2023-04-25T10:50:54.274Z,93942.00
2023-04-25T10:51:55.747Z,93944.00
2023-04-25T10:52:54.390Z,93942.00
2023-04-25T10:53:55.384Z,93942.00
2023-04-25T10:54:54.485Z,93942.00
2023-04-25T10:55:54.553Z,93938.00
2023-04-25T10:56:54.528Z,93942.00
2023-04-25T10:57:54.560Z,93942.00
2023-04-25T10:58:54.573Z,93940.00
2023-04-25T10:59:54.617Z,93936.00
2023-04-25T11:00:57.675Z,93936.00
2023-04-25T11:01:54.652Z,93942.00
2023-04-25T11:02:54.762Z,93936.00
2023-04-25T11:03:54.772Z,93932.00
2023-04-25T11:04:54.805Z,93930.00
2023-04-25T11:05:58.172Z,93932.00
2023-04-25T11:06:58.264Z,93932.00
2023-04-25T11:08:06.568Z,93932.00
2023-04-25T11:08:55.621Z,93934.00
2023-04-25T11:09:55.197Z,93938.00
2023-04-25T11:10:54.607Z,93932.00
2023-04-25T11:11:54.919Z,93934.00
2023-04-25T11:12:54.591Z,93936.00
2023-04-25T11:13:54.592Z,93936.00
2023-04-25T11:14:55.445Z,93938.00
2023-04-25T11:16:03.253Z,93938.00
2023-04-25T11:16:56.573Z,93938.00
2023-04-25T11:17:54.626Z,93942.00
2023-04-25T11:18:54.732Z,93938.00
2023-04-25T11:19:54.559Z,93934.00
2023-04-25T11:20:54.537Z,93938.00
2023-04-25T11:21:54.596Z,93946.00
2023-04-25T11:22:54.499Z,93954.00
2023-04-25T11:23:54.627Z,93962.00
2023-04-25T11:24:54.501Z,93960.00
2023-04-25T11:25:54.517Z,93962.00
2023-04-25T11:26:54.488Z,93962.00
2023-04-25T11:27:54.916Z,93962.00
2023-04-25T11:28:54.468Z,93960.00
2023-04-25T11:29:54.529Z,93958.00
2023-04-25T11:30:54.444Z,93956.00
2023-04-25T11:31:54.502Z,93969.00
2023-04-25T11:32:54.990Z,93967.00
2023-04-25T11:33:54.423Z,93965.00
2023-04-25T11:34:54.459Z,93964.00
2023-04-25T11:35:54.450Z,93967.00
2023-04-25T11:36:54.477Z,93967.00
2023-04-25T11:37:54.437Z,93965.00
2023-04-25T11:38:54.380Z,93965.00
2023-04-25T11:39:54.408Z,93965.00
2023-04-25T11:40:54.394Z,93965.00
2023-04-25T11:41:54.354Z,93965.00
2023-04-25T11:42:55.123Z,93967.00
2023-04-25T11:43:54.500Z,93965.00
2023-04-25T11:44:54.356Z,93965.00
2023-04-25T11:45:54.382Z,93965.00
2023-04-25T11:46:54.345Z,93965.00